KTMB

Miami Executive Airport

Miami, Florida, USA
METAR KTMB 140653Z AUTO 14006KT 10SM CLR 23/19 A3005 RMK AO2 SLP176 T02280189
Observed Flight Rules
Dec-14 @ 06:53 UTC (48 minutes ago) Visual Flight Rules
Wind Visibility Clouds
140° at 6 knots 10 miles
  • Clear skies
Temperatures Readings
Current 23°C / 73°F
Dewpoint 19°C / 66°F
Humidity 78%
Altimeter 30.05" Hg
Pressure 1017.6 hPa
Elevation 2
METAR KTMB 140653Z AUTO 14006KT 10SM CLR 23/19 A3005 RMK AO2 SLP176 T02280189
Observed Flight Rules
Dec-14 @ 06:53 UTC
(48 minutes ago)
VFR
Wind Visibility
140° at 6 knots 10 miles
Clouds
  • Clear skies
Temperature Dewpoint
23°C / 73°F 19°C / 66°F
Humidity Altimeter Pressure
78% 30.05" Hg 1017.6 hPa